sensor_id;sensor_type;location;lat;lon;timestamp;pressure;altitude;pressure_sealevel;temperature
22828;BMP180;11580;52.562;13.418;2024-01-30T00:01:25;101949.00;;;8.90
22828;BMP180;11580;52.562;13.418;2024-01-30T00:03:52;101939.00;;;8.90
22828;BMP180;11580;52.562;13.418;2024-01-30T00:06:19;101937.00;;;8.90
22828;BMP180;11580;52.562;13.418;2024-01-30T00:08:48;101947.00;;;8.90
22828;BMP180;11580;52.562;13.418;2024-01-30T00:11:16;101948.00;;;8.90
22828;BMP180;11580;52.562;13.418;2024-01-30T00:13:43;101949.00;;;8.80
22828;BMP180;11580;52.562;13.418;2024-01-30T00:16:20;101942.00;;;8.80
22828;BMP180;11580;52.562;13.418;2024-01-30T00:18:50;101945.00;;;8.80
22828;BMP180;11580;52.562;13.418;2024-01-30T00:21:17;101944.00;;;8.80
22828;BMP180;11580;52.562;13.418;2024-01-30T00:23:44;101954.00;;;8.80
22828;BMP180;11580;52.562;13.418;2024-01-30T00:26:13;101931.00;;;8.70
22828;BMP180;11580;52.562;13.418;2024-01-30T00:28:41;101944.00;;;8.70
22828;BMP180;11580;52.562;13.418;2024-01-30T00:31:09;101947.00;;;8.70
22828;BMP180;11580;52.562;13.418;2024-01-30T00:33:38;101951.00;;;8.70
22828;BMP180;11580;52.562;13.418;2024-01-30T00:36:06;101950.00;;;8.60
22828;BMP180;11580;52.562;13.418;2024-01-30T00:38:33;101948.00;;;8.60
22828;BMP180;11580;52.562;13.418;2024-01-30T00:41:01;101938.00;;;8.60
22828;BMP180;11580;52.562;13.418;2024-01-30T00:43:30;101942.00;;;8.60
22828;BMP180;11580;52.562;13.418;2024-01-30T00:45:58;101938.00;;;8.50
22828;BMP180;11580;52.562;13.418;2024-01-30T00:48:26;101946.00;;;8.50
22828;BMP180;11580;52.562;13.418;2024-01-30T00:50:53;101928.00;;;8.50
22828;BMP180;11580;52.562;13.418;2024-01-30T00:53:20;101932.00;;;8.50
22828;BMP180;11580;52.562;13.418;2024-01-30T00:55:47;101941.00;;;8.50
22828;BMP180;11580;52.562;13.418;2024-01-30T00:58:14;101942.00;;;8.40
22828;BMP180;11580;52.562;13.418;2024-01-30T01:00:43;101936.00;;;8.40
22828;BMP180;11580;52.562;13.418;2024-01-30T01:03:10;101938.00;;;8.40
22828;BMP180;11580;52.562;13.418;2024-01-30T01:05:37;101935.00;;;8.40
22828;BMP180;11580;52.562;13.418;2024-01-30T01:08:05;101938.00;;;8.30
22828;BMP180;11580;52.562;13.418;2024-01-30T01:10:32;101941.00;;;8.30
22828;BMP180;11580;52.562;13.418;2024-01-30T01:12:59;101935.00;;;8.30
22828;BMP180;11580;52.562;13.418;2024-01-30T01:15:27;101942.00;;;8.30
22828;BMP180;11580;52.562;13.418;2024-01-30T01:17:55;101934.00;;;8.30
22828;BMP180;11580;52.562;13.418;2024-01-30T01:20:22;101936.00;;;8.20
22828;BMP180;11580;52.562;13.418;2024-01-30T01:22:49;101933.00;;;8.20
22828;BMP180;11580;52.562;13.418;2024-01-30T01:25:18;101936.00;;;8.20
22828;BMP180;11580;52.562;13.418;2024-01-30T01:27:45;101936.00;;;8.20
22828;BMP180;11580;52.562;13.418;2024-01-30T01:30:17;101940.00;;;8.20
22828;BMP180;11580;52.562;13.418;2024-01-30T01:32:48;101929.00;;;8.20
22828;BMP180;11580;52.562;13.418;2024-01-30T01:35:22;101930.00;;;8.20
22828;BMP180;11580;52.562;13.418;2024-01-30T01:37:50;101927.00;;;8.10
22828;BMP180;11580;52.562;13.418;2024-01-30T01:40:22;101936.00;;;8.10
22828;BMP180;11580;52.562;13.418;2024-01-30T01:42:50;101925.00;;;8.10
22828;BMP180;11580;52.562;13.418;2024-01-30T01:45:18;101932.00;;;8.10
22828;BMP180;11580;52.562;13.418;2024-01-30T01:47:50;101927.00;;;8.10
22828;BMP180;11580;52.562;13.418;2024-01-30T01:50:21;101932.00;;;8.10
22828;BMP180;11580;52.562;13.418;2024-01-30T01:52:50;101931.00;;;8.10
22828;BMP180;11580;52.562;13.418;2024-01-30T01:55:21;101919.00;;;8.10
22828;BMP180;11580;52.562;13.418;2024-01-30T01:57:50;101917.00;;;8.00
22828;BMP180;11580;52.562;13.418;2024-01-30T02:00:19;101929.00;;;8.00
22828;BMP180;11580;52.562;13.418;2024-01-30T02:02:47;101908.00;;;8.10
22828;BMP180;11580;52.562;13.418;2024-01-30T02:05:15;101919.00;;;8.00
22828;BMP180;11580;52.562;13.418;2024-01-30T02:07:44;101926.00;;;8.00
22828;BMP180;11580;52.562;13.418;2024-01-30T02:10:11;101921.00;;;8.00
22828;BMP180;11580;52.562;13.418;2024-01-30T02:12:39;101922.00;;;8.00
22828;BMP180;11580;52.562;13.418;2024-01-30T02:15:06;101917.00;;;8.00
22828;BMP180;11580;52.562;13.418;2024-01-30T02:17:34;101929.00;;;8.00
22828;BMP180;11580;52.562;13.418;2024-01-30T02:20:01;101928.00;;;8.00
22828;BMP180;11580;52.562;13.418;2024-01-30T02:22:33;101927.00;;;8.00
22828;BMP180;11580;52.562;13.418;2024-01-30T02:25:01;101937.00;;;8.00
22828;BMP180;11580;52.562;13.418;2024-01-30T02:27:28;101930.00;;;8.00
22828;BMP180;11580;52.562;13.418;2024-01-30T02:29:55;101919.00;;;8.00
22828;BMP180;11580;52.562;13.418;2024-01-30T02:32:22;101919.00;;;8.00
22828;BMP180;11580;52.562;13.418;2024-01-30T02:34:49;101916.00;;;8.10
22828;BMP180;11580;52.562;13.418;2024-01-30T02:37:17;101919.00;;;8.10
22828;BMP180;11580;52.562;13.418;2024-01-30T02:39:45;101920.00;;;8.10
22828;BMP180;11580;52.562;13.418;2024-01-30T02:42:12;101924.00;;;8.10
22828;BMP180;11580;52.562;13.418;2024-01-30T02:44:39;101916.00;;;8.10
22828;BMP180;11580;52.562;13.418;2024-01-30T02:47:07;101918.00;;;8.10
22828;BMP180;11580;52.562;13.418;2024-01-30T02:49:34;101912.00;;;8.10
22828;BMP180;11580;52.562;13.418;2024-01-30T02:52:01;101915.00;;;8.10
22828;BMP180;11580;52.562;13.418;2024-01-30T02:54:28;101917.00;;;8.10
22828;BMP180;11580;52.562;13.418;2024-01-30T02:56:58;101917.00;;;8.10
22828;BMP180;11580;52.562;13.418;2024-01-30T02:59:25;101917.00;;;8.10
22828;BMP180;11580;52.562;13.418;2024-01-30T03:01:52;101920.00;;;8.10
22828;BMP180;11580;52.562;13.418;2024-01-30T03:04:19;101906.00;;;8.10
22828;BMP180;11580;52.562;13.418;2024-01-30T03:06:46;101910.00;;;8.10
22828;BMP180;11580;52.562;13.418;2024-01-30T03:09:15;101909.00;;;8.10
22828;BMP180;11580;52.562;13.418;2024-01-30T03:11:43;101897.00;;;8.10
22828;BMP180;11580;52.562;13.418;2024-01-30T03:14:11;101904.00;;;8.10
22828;BMP180;11580;52.562;13.418;2024-01-30T03:16:38;101898.00;;;8.10
22828;BMP180;11580;52.562;13.418;2024-01-30T03:19:06;101895.00;;;8.00
22828;BMP180;11580;52.562;13.418;2024-01-30T03:21:35;101893.00;;;8.10
22828;BMP180;11580;52.562;13.418;2024-01-30T03:24:02;101898.00;;;8.00
22828;BMP180;11580;52.562;13.418;2024-01-30T03:26:29;101898.00;;;8.00
22828;BMP180;11580;52.562;13.418;2024-01-30T03:28:57;101893.00;;;8.00
22828;BMP180;11580;52.562;13.418;2024-01-30T03:31:25;101894.00;;;8.00
22828;BMP180;11580;52.562;13.418;2024-01-30T03:33:52;101893.00;;;8.00
22828;BMP180;11580;52.562;13.418;2024-01-30T03:36:20;101893.00;;;8.00
22828;BMP180;11580;52.562;13.418;2024-01-30T03:38:47;101892.00;;;8.00
22828;BMP180;11580;52.562;13.418;2024-01-30T03:41:14;101891.00;;;8.00
22828;BMP180;11580;52.562;13.418;2024-01-30T03:43:41;101896.00;;;8.00
22828;BMP180;11580;52.562;13.418;2024-01-30T03:46:09;101902.00;;;8.00
22828;BMP180;11580;52.562;13.418;2024-01-30T03:48:37;101886.00;;;7.90
22828;BMP180;11580;52.562;13.418;2024-01-30T03:51:05;101895.00;;;7.90
22828;BMP180;11580;52.562;13.418;2024-01-30T03:53:32;101888.00;;;7.90
22828;BMP180;11580;52.562;13.418;2024-01-30T03:55:59;101896.00;;;7.90
22828;BMP180;11580;52.562;13.418;2024-01-30T03:58:26;101891.00;;;7.90
22828;BMP180;11580;52.562;13.418;2024-01-30T04:00:54;101889.00;;;7.90
22828;BMP180;11580;52.562;13.418;2024-01-30T04:03:21;101886.00;;;7.90
22828;BMP180;11580;52.562;13.418;2024-01-30T04:05:50;101882.00;;;7.90
22828;BMP180;11580;52.562;13.418;2024-01-30T04:08:18;101862.00;;;7.90
22828;BMP180;11580;52.562;13.418;2024-01-30T04:10:46;101885.00;;;7.90
22828;BMP180;11580;52.562;13.418;2024-01-30T04:13:13;101889.00;;;7.90
22828;BMP180;11580;52.562;13.418;2024-01-30T04:15:41;101893.00;;;7.90
22828;BMP180;11580;52.562;13.418;2024-01-30T04:18:08;101893.00;;;7.90
22828;BMP180;11580;52.562;13.418;2024-01-30T04:20:35;101901.00;;;7.90
22828;BMP180;11580;52.562;13.418;2024-01-30T04:23:04;101892.00;;;7.90
22828;BMP180;11580;52.562;13.418;2024-01-30T04:25:32;101894.00;;;7.90
22828;BMP180;11580;52.562;13.418;2024-01-30T04:27:59;101894.00;;;7.90
22828;BMP180;11580;52.562;13.418;2024-01-30T04:30:26;101898.00;;;7.90
22828;BMP180;11580;52.562;13.418;2024-01-30T04:32:53;101900.00;;;7.90
22828;BMP180;11580;52.562;13.418;2024-01-30T04:35:21;101894.00;;;7.90
22828;BMP180;11580;52.562;13.418;2024-01-30T04:37:52;101890.00;;;7.90
22828;BMP180;11580;52.562;13.418;2024-01-30T04:40:20;101885.00;;;7.90
22828;BMP180;11580;52.562;13.418;2024-01-30T04:42:48;101876.00;;;7.90
22828;BMP180;11580;52.562;13.418;2024-01-30T04:45:15;101879.00;;;7.90
22828;BMP180;11580;52.562;13.418;2024-01-30T04:47:42;101881.00;;;7.90
22828;BMP180;11580;52.562;13.418;2024-01-30T04:50:10;101885.00;;;7.90
22828;BMP180;11580;52.562;13.418;2024-01-30T04:52:37;101877.00;;;7.90
22828;BMP180;11580;52.562;13.418;2024-01-30T04:55:05;101882.00;;;7.90
22828;BMP180;11580;52.562;13.418;2024-01-30T04:57:34;101874.00;;;7.90
22828;BMP180;11580;52.562;13.418;2024-01-30T05:00:02;101878.00;;;7.90
22828;BMP180;11580;52.562;13.418;2024-01-30T05:02:31;101871.00;;;7.90
22828;BMP180;11580;52.562;13.418;2024-01-30T05:04:58;101877.00;;;8.00
22828;BMP180;11580;52.562;13.418;2024-01-30T05:07:25;101881.00;;;7.90
22828;BMP180;11580;52.562;13.418;2024-01-30T05:09:52;101876.00;;;7.90
22828;BMP180;11580;52.562;13.418;2024-01-30T05:12:20;101879.00;;;7.90
22828;BMP180;11580;52.562;13.418;2024-01-30T05:14:48;101876.00;;;7.90
22828;BMP180;11580;52.562;13.418;2024-01-30T05:17:15;101882.00;;;7.90
22828;BMP180;11580;52.562;13.418;2024-01-30T05:19:44;101879.00;;;7.90
22828;BMP180;11580;52.562;13.418;2024-01-30T05:22:11;101883.00;;;7.90
22828;BMP180;11580;52.562;13.418;2024-01-30T05:24:41;101877.00;;;7.90
22828;BMP180;11580;52.562;13.418;2024-01-30T05:27:08;101874.00;;;7.90
22828;BMP180;11580;52.562;13.418;2024-01-30T05:29:36;101876.00;;;7.90
22828;BMP180;11580;52.562;13.418;2024-01-30T05:32:05;101870.00;;;7.90
22828;BMP180;11580;52.562;13.418;2024-01-30T05:34:32;101872.00;;;7.90
22828;BMP180;11580;52.562;13.418;2024-01-30T05:36:59;101870.00;;;7.90
22828;BMP180;11580;52.562;13.418;2024-01-30T05:39:27;101881.00;;;7.90
22828;BMP180;11580;52.562;13.418;2024-01-30T05:41:54;101851.00;;;7.90
22828;BMP180;11580;52.562;13.418;2024-01-30T05:44:21;101872.00;;;7.90
22828;BMP180;11580;52.562;13.418;2024-01-30T05:46:48;101870.00;;;7.90
22828;BMP180;11580;52.562;13.418;2024-01-30T05:49:16;101865.00;;;7.90
22828;BMP180;11580;52.562;13.418;2024-01-30T05:51:44;101859.00;;;7.90
22828;BMP180;11580;52.562;13.418;2024-01-30T05:54:11;101861.00;;;7.90
22828;BMP180;11580;52.562;13.418;2024-01-30T05:56:38;101859.00;;;7.90
22828;BMP180;11580;52.562;13.418;2024-01-30T05:59:05;101863.00;;;7.90
22828;BMP180;11580;52.562;13.418;2024-01-30T06:01:32;101872.00;;;7.90
22828;BMP180;11580;52.562;13.418;2024-01-30T06:04:00;101870.00;;;7.90
22828;BMP180;11580;52.562;13.418;2024-01-30T06:06:29;101865.00;;;7.90
22828;BMP180;11580;52.562;13.418;2024-01-30T06:08:56;101862.00;;;7.90
22828;BMP180;11580;52.562;13.418;2024-01-30T06:11:24;101858.00;;;7.90
22828;BMP180;11580;52.562;13.418;2024-01-30T06:13:51;101871.00;;;7.90
22828;BMP180;11580;52.562;13.418;2024-01-30T06:16:18;101860.00;;;7.90
22828;BMP180;11580;52.562;13.418;2024-01-30T06:18:46;101861.00;;;7.90
22828;BMP180;11580;52.562;13.418;2024-01-30T06:21:14;101861.00;;;7.90
22828;BMP180;11580;52.562;13.418;2024-01-30T06:23:42;101855.00;;;7.90
22828;BMP180;11580;52.562;13.418;2024-01-30T06:26:09;101854.00;;;7.90
22828;BMP180;11580;52.562;13.418;2024-01-30T06:28:37;101856.00;;;7.90
22828;BMP180;11580;52.562;13.418;2024-01-30T06:31:04;101863.00;;;8.00
22828;BMP180;11580;52.562;13.418;2024-01-30T06:33:31;101864.00;;;8.00
22828;BMP180;11580;52.562;13.418;2024-01-30T06:35:59;101860.00;;;8.00
22828;BMP180;11580;52.562;13.418;2024-01-30T06:38:26;101857.00;;;8.00
22828;BMP180;11580;52.562;13.418;2024-01-30T06:40:54;101864.00;;;8.00
22828;BMP180;11580;52.562;13.418;2024-01-30T06:43:22;101860.00;;;8.00
22828;BMP180;11580;52.562;13.418;2024-01-30T06:45:49;101860.00;;;8.10
22828;BMP180;11580;52.562;13.418;2024-01-30T06:48:17;101865.00;;;8.10
22828;BMP180;11580;52.562;13.418;2024-01-30T06:50:44;101861.00;;;8.00
22828;BMP180;11580;52.562;13.418;2024-01-30T06:53:13;101850.00;;;8.10
22828;BMP180;11580;52.562;13.418;2024-01-30T06:55:41;101855.00;;;8.10
22828;BMP180;11580;52.562;13.418;2024-01-30T06:58:09;101859.00;;;8.10
22828;BMP180;11580;52.562;13.418;2024-01-30T07:00:36;101854.00;;;8.10
22828;BMP180;11580;52.562;13.418;2024-01-30T07:03:04;101852.00;;;8.10
22828;BMP180;11580;52.562;13.418;2024-01-30T07:05:32;101858.00;;;8.20
22828;BMP180;11580;52.562;13.418;2024-01-30T07:07:59;101852.00;;;8.20
22828;BMP180;11580;52.562;13.418;2024-01-30T07:10:26;101859.00;;;8.20
22828;BMP180;11580;52.562;13.418;2024-01-30T07:12:53;101860.00;;;8.20
22828;BMP180;11580;52.562;13.418;2024-01-30T07:15:22;101870.00;;;8.20
22828;BMP180;11580;52.562;13.418;2024-01-30T07:17:49;101859.00;;;8.20
22828;BMP180;11580;52.562;13.418;2024-01-30T07:20:16;101873.00;;;8.30
22828;BMP180;11580;52.562;13.418;2024-01-30T07:22:46;101862.00;;;8.30
22828;BMP180;11580;52.562;13.418;2024-01-30T07:25:13;101857.00;;;8.40
22828;BMP180;11580;52.562;13.418;2024-01-30T07:27:41;101854.00;;;8.40
22828;BMP180;11580;52.562;13.418;2024-01-30T07:30:09;101854.00;;;8.40
22828;BMP180;11580;52.562;13.418;2024-01-30T07:32:37;101853.00;;;8.50
22828;BMP180;11580;52.562;13.418;2024-01-30T07:35:05;101855.00;;;8.50
22828;BMP180;11580;52.562;13.418;2024-01-30T07:37:32;101854.00;;;8.60
22828;BMP180;11580;52.562;13.418;2024-01-30T07:40:01;101857.00;;;8.60
22828;BMP180;11580;52.562;13.418;2024-01-30T07:42:29;101847.00;;;8.70
22828;BMP180;11580;52.562;13.418;2024-01-30T07:44:56;101846.00;;;8.80
22828;BMP180;11580;52.562;13.418;2024-01-30T07:47:23;101857.00;;;8.80
22828;BMP180;11580;52.562;13.418;2024-01-30T07:49:51;101851.00;;;8.90
22828;BMP180;11580;52.562;13.418;2024-01-30T07:52:20;101858.00;;;9.00
22828;BMP180;11580;52.562;13.418;2024-01-30T07:54:50;101858.00;;;9.00
22828;BMP180;11580;52.562;13.418;2024-01-30T07:57:17;101849.00;;;9.10
22828;BMP180;11580;52.562;13.418;2024-01-30T07:59:45;101852.00;;;9.20
22828;BMP180;11580;52.562;13.418;2024-01-30T08:02:12;101857.00;;;9.30
22828;BMP180;11580;52.562;13.418;2024-01-30T08:04:40;101859.00;;;9.40
22828;BMP180;11580;52.562;13.418;2024-01-30T08:07:08;101849.00;;;9.40
22828;BMP180;11580;52.562;13.418;2024-01-30T08:09:35;101852.00;;;9.50
22828;BMP180;11580;52.562;13.418;2024-01-30T08:12:03;101853.00;;;9.60
22828;BMP180;11580;52.562;13.418;2024-01-30T08:14:31;101856.00;;;9.60
22828;BMP180;11580;52.562;13.418;2024-01-30T08:16:58;101852.00;;;9.70
22828;BMP180;11580;52.562;13.418;2024-01-30T08:19:25;101852.00;;;9.70
22828;BMP180;11580;52.562;13.418;2024-01-30T08:21:52;101852.00;;;9.80
22828;BMP180;11580;52.562;13.418;2024-01-30T08:24:21;101852.00;;;9.80
22828;BMP180;11580;52.562;13.418;2024-01-30T08:26:48;101850.00;;;9.90
22828;BMP180;11580;52.562;13.418;2024-01-30T08:29:15;101847.00;;;9.90
22828;BMP180;11580;52.562;13.418;2024-01-30T08:31:42;101861.00;;;10.00
22828;BMP180;11580;52.562;13.418;2024-01-30T08:34:10;101846.00;;;10.00
22828;BMP180;11580;52.562;13.418;2024-01-30T08:36:37;101845.00;;;10.00
22828;BMP180;11580;52.562;13.418;2024-01-30T08:39:04;101843.00;;;10.10
22828;BMP180;11580;52.562;13.418;2024-01-30T08:41:33;101845.00;;;10.10
22828;BMP180;11580;52.562;13.418;2024-01-30T08:44:00;101852.00;;;10.20
22828;BMP180;11580;52.562;13.418;2024-01-30T08:46:27;101851.00;;;10.20
22828;BMP180;11580;52.562;13.418;2024-01-30T08:48:54;101843.00;;;10.30
22828;BMP180;11580;52.562;13.418;2024-01-30T08:51:21;101843.00;;;10.30
22828;BMP180;11580;52.562;13.418;2024-01-30T08:53:49;101853.00;;;10.40
22828;BMP180;11580;52.562;13.418;2024-01-30T08:56:16;101850.00;;;10.50
22828;BMP180;11580;52.562;13.418;2024-01-30T08:58:44;101848.00;;;10.50
22828;BMP180;11580;52.562;13.418;2024-01-30T09:01:11;101840.00;;;10.60
22828;BMP180;11580;52.562;13.418;2024-01-30T09:03:38;101847.00;;;10.70
22828;BMP180;11580;52.562;13.418;2024-01-30T09:06:08;101850.00;;;10.80
22828;BMP180;11580;52.562;13.418;2024-01-30T09:08:35;101848.00;;;10.90
22828;BMP180;11580;52.562;13.418;2024-01-30T09:11:09;101855.00;;;11.00
22828;BMP180;11580;52.562;13.418;2024-01-30T09:13:36;101856.00;;;11.10
22828;BMP180;11580;52.562;13.418;2024-01-30T09:16:06;101859.00;;;11.20
22828;BMP180;11580;52.562;13.418;2024-01-30T09:18:33;101853.00;;;11.30
22828;BMP180;11580;52.562;13.418;2024-01-30T09:21:00;101854.00;;;11.40
22828;BMP180;11580;52.562;13.418;2024-01-30T09:23:28;101862.00;;;11.50
22828;BMP180;11580;52.562;13.418;2024-01-30T09:25:55;101850.00;;;11.60
22828;BMP180;11580;52.562;13.418;2024-01-30T09:28:22;101858.00;;;11.70
22828;BMP180;11580;52.562;13.418;2024-01-30T09:30:50;101857.00;;;11.80
22828;BMP180;11580;52.562;13.418;2024-01-30T09:33:18;101870.00;;;11.80
22828;BMP180;11580;52.562;13.418;2024-01-30T09:35:45;101863.00;;;11.90
22828;BMP180;11580;52.562;13.418;2024-01-30T09:38:13;101860.00;;;12.00
22828;BMP180;11580;52.562;13.418;2024-01-30T09:40:40;101863.00;;;12.00
22828;BMP180;11580;52.562;13.418;2024-01-30T09:43:07;101863.00;;;12.10
22828;BMP180;11580;52.562;13.418;2024-01-30T09:45:35;101869.00;;;12.10
22828;BMP180;11580;52.562;13.418;2024-01-30T09:48:03;101853.00;;;12.20
22828;BMP180;11580;52.562;13.418;2024-01-30T09:50:34;101858.00;;;12.20
22828;BMP180;11580;52.562;13.418;2024-01-30T09:53:05;101858.00;;;12.20
22828;BMP180;11580;52.562;13.418;2024-01-30T09:55:34;101852.00;;;12.30
22828;BMP180;11580;52.562;13.418;2024-01-30T09:58:02;101843.00;;;12.30
22828;BMP180;11580;52.562;13.418;2024-01-30T10:00:29;101847.00;;;12.30
22828;BMP180;11580;52.562;13.418;2024-01-30T10:02:57;101845.00;;;12.40
22828;BMP180;11580;52.562;13.418;2024-01-30T10:05:27;101835.00;;;12.40
22828;BMP180;11580;52.562;13.418;2024-01-30T10:07:57;101856.00;;;12.40
22828;BMP180;11580;52.562;13.418;2024-01-30T10:10:24;101843.00;;;12.50
22828;BMP180;11580;52.562;13.418;2024-01-30T10:12:52;101846.00;;;12.50
22828;BMP180;11580;52.562;13.418;2024-01-30T10:15:19;101849.00;;;12.50
22828;BMP180;11580;52.562;13.418;2024-01-30T10:17:46;101838.00;;;12.60
22828;BMP180;11580;52.562;13.418;2024-01-30T10:20:13;101835.00;;;12.50
22828;BMP180;11580;52.562;13.418;2024-01-30T10:22:41;101831.00;;;12.60
22828;BMP180;11580;52.562;13.418;2024-01-30T10:25:11;101835.00;;;12.70
22828;BMP180;11580;52.562;13.418;2024-01-30T10:27:40;101837.00;;;12.70
22828;BMP180;11580;52.562;13.418;2024-01-30T10:30:08;101838.00;;;12.80
22828;BMP180;11580;52.562;13.418;2024-01-30T10:32:35;101835.00;;;12.80
22828;BMP180;11580;52.562;13.418;2024-01-30T10:35:03;101844.00;;;12.80
22828;BMP180;11580;52.562;13.418;2024-01-30T10:37:31;101833.00;;;12.90
22828;BMP180;11580;52.562;13.418;2024-01-30T10:40:03;101836.00;;;12.90
22828;BMP180;11580;52.562;13.418;2024-01-30T10:42:36;101830.00;;;12.90
22828;BMP180;11580;52.562;13.418;2024-01-30T10:45:07;101829.00;;;12.90
22828;BMP180;11580;52.562;13.418;2024-01-30T10:47:36;101825.00;;;13.00
22828;BMP180;11580;52.562;13.418;2024-01-30T10:50:05;101830.00;;;13.00
22828;BMP180;11580;52.562;13.418;2024-01-30T10:52:34;101831.00;;;13.00
22828;BMP180;11580;52.562;13.418;2024-01-30T10:55:04;101838.00;;;13.10
22828;BMP180;11580;52.562;13.418;2024-01-30T10:57:34;101827.00;;;13.10
22828;BMP180;11580;52.562;13.418;2024-01-30T11:00:06;101834.00;;;13.10
22828;BMP180;11580;52.562;13.418;2024-01-30T11:02:37;101824.00;;;13.10
22828;BMP180;11580;52.562;13.418;2024-01-30T11:05:06;101826.00;;;13.20
22828;BMP180;11580;52.562;13.418;2024-01-30T11:07:34;101827.00;;;13.20
22828;BMP180;11580;52.562;13.418;2024-01-30T11:10:03;101832.00;;;13.20
22828;BMP180;11580;52.562;13.418;2024-01-30T11:12:39;101834.00;;;13.30
22828;BMP180;11580;52.562;13.418;2024-01-30T11:15:11;101809.00;;;13.30
22828;BMP180;11580;52.562;13.418;2024-01-30T11:17:45;101837.00;;;13.40
22828;BMP180;11580;52.562;13.418;2024-01-30T11:20:15;101821.00;;;13.40
22828;BMP180;11580;52.562;13.418;2024-01-30T11:22:44;101826.00;;;13.40
22828;BMP180;11580;52.562;13.418;2024-01-30T11:25:13;101824.00;;;13.50
22828;BMP180;11580;52.562;13.418;2024-01-30T11:27:43;101823.00;;;13.50
22828;BMP180;11580;52.562;13.418;2024-01-30T11:30:11;101823.00;;;13.60
22828;BMP180;11580;52.562;13.418;2024-01-30T11:32:38;101820.00;;;13.60
22828;BMP180;11580;52.562;13.418;2024-01-30T11:35:06;101815.00;;;13.60
22828;BMP180;11580;52.562;13.418;2024-01-30T11:37:37;101829.00;;;13.70
22828;BMP180;11580;52.562;13.418;2024-01-30T11:40:07;101822.00;;;13.70
22828;BMP180;11580;52.562;13.418;2024-01-30T11:42:37;101820.00;;;13.70
22828;BMP180;11580;52.562;13.418;2024-01-30T11:45:07;101823.00;;;13.80
22828;BMP180;11580;52.562;13.418;2024-01-30T11:47:36;101826.00;;;13.80
22828;BMP180;11580;52.562;13.418;2024-01-30T11:50:04;101817.00;;;13.80
22828;BMP180;11580;52.562;13.418;2024-01-30T11:52:33;101822.00;;;13.90
22828;BMP180;11580;52.562;13.418;2024-01-30T11:55:00;101821.00;;;13.90
22828;BMP180;11580;52.562;13.418;2024-01-30T11:57:28;101823.00;;;14.00
22828;BMP180;11580;52.562;13.418;2024-01-30T11:59:55;101814.00;;;14.00
22828;BMP180;11580;52.562;13.418;2024-01-30T12:02:24;101814.00;;;14.10
22828;BMP180;11580;52.562;13.418;2024-01-30T12:04:51;101810.00;;;14.20
22828;BMP180;11580;52.562;13.418;2024-01-30T12:07:18;101806.00;;;14.30
22828;BMP180;11580;52.562;13.418;2024-01-30T12:09:53;101804.00;;;14.40
22828;BMP180;11580;52.562;13.418;2024-01-30T12:12:22;101804.00;;;14.50
22828;BMP180;11580;52.562;13.418;2024-01-30T12:14:50;101797.00;;;14.50
22828;BMP180;11580;52.562;13.418;2024-01-30T12:17:28;101797.00;;;14.60
22828;BMP180;11580;52.562;13.418;2024-01-30T12:20:06;101796.00;;;14.70
22828;BMP180;11580;52.562;13.418;2024-01-30T12:22:36;101792.00;;;14.70
22828;BMP180;11580;52.562;13.418;2024-01-30T12:25:05;101786.00;;;14.80
22828;BMP180;11580;52.562;13.418;2024-01-30T12:27:34;101765.00;;;14.90
22828;BMP180;11580;52.562;13.418;2024-01-30T12:30:05;101777.00;;;14.90
22828;BMP180;11580;52.562;13.418;2024-01-30T12:32:34;101771.00;;;15.00
22828;BMP180;11580;52.562;13.418;2024-01-30T12:35:03;101773.00;;;15.00
22828;BMP180;11580;52.562;13.418;2024-01-30T12:37:31;101778.00;;;15.00
22828;BMP180;11580;52.562;13.418;2024-01-30T12:39:58;101773.00;;;15.00
22828;BMP180;11580;52.562;13.418;2024-01-30T12:42:27;101768.00;;;15.00
22828;BMP180;11580;52.562;13.418;2024-01-30T12:44:57;101757.00;;;15.00
22828;BMP180;11580;52.562;13.418;2024-01-30T12:47:24;101760.00;;;15.00
22828;BMP180;11580;52.562;13.418;2024-01-30T12:49:53;101753.00;;;15.00
22828;BMP180;11580;52.562;13.418;2024-01-30T12:52:21;101755.00;;;15.00
22828;BMP180;11580;52.562;13.418;2024-01-30T12:54:49;101744.00;;;15.00
22828;BMP180;11580;52.562;13.418;2024-01-30T12:57:17;101747.00;;;14.90
22828;BMP180;11580;52.562;13.418;2024-01-30T12:59:46;101755.00;;;14.90
22828;BMP180;11580;52.562;13.418;2024-01-30T13:02:13;101742.00;;;14.90
22828;BMP180;11580;52.562;13.418;2024-01-30T13:04:42;101758.00;;;14.80
22828;BMP180;11580;52.562;13.418;2024-01-30T13:07:11;101760.00;;;14.80
22828;BMP180;11580;52.562;13.418;2024-01-30T13:09:38;101758.00;;;14.80
22828;BMP180;11580;52.562;13.418;2024-01-30T13:12:06;101747.00;;;14.80
22828;BMP180;11580;52.562;13.418;2024-01-30T13:14:33;101750.00;;;14.70
22828;BMP180;11580;52.562;13.418;2024-01-30T13:17:01;101738.00;;;14.70
22828;BMP180;11580;52.562;13.418;2024-01-30T13:19:29;101742.00;;;14.60
22828;BMP180;11580;52.562;13.418;2024-01-30T13:21:56;101736.00;;;14.60
22828;BMP180;11580;52.562;13.418;2024-01-30T13:24:24;101734.00;;;14.60
22828;BMP180;11580;52.562;13.418;2024-01-30T13:26:52;101733.00;;;14.60
22828;BMP180;11580;52.562;13.418;2024-01-30T13:29:19;101727.00;;;14.50
22828;BMP180;11580;52.562;13.418;2024-01-30T13:31:47;101728.00;;;14.50
22828;BMP180;11580;52.562;13.418;2024-01-30T13:34:14;101733.00;;;14.50
22828;BMP180;11580;52.562;13.418;2024-01-30T13:36:41;101736.00;;;14.40
22828;BMP180;11580;52.562;13.418;2024-01-30T13:39:09;101735.00;;;14.40
22828;BMP180;11580;52.562;13.418;2024-01-30T13:41:41;101737.00;;;14.40
22828;BMP180;11580;52.562;13.418;2024-01-30T13:44:08;101747.00;;;14.40
22828;BMP180;11580;52.562;13.418;2024-01-30T13:46:36;101744.00;;;14.40
22828;BMP180;11580;52.562;13.418;2024-01-30T13:49:04;101743.00;;;14.40
22828;BMP180;11580;52.562;13.418;2024-01-30T13:51:32;101741.00;;;14.40
22828;BMP180;11580;52.562;13.418;2024-01-30T13:53:59;101741.00;;;14.40
22828;BMP180;11580;52.562;13.418;2024-01-30T13:56:27;101738.00;;;14.40